createdAt,value
2023-05-13T00:01:46.276Z,10.82
2023-05-13T00:04:12.998Z,11.57
2023-05-13T00:06:39.696Z,12.13
2023-05-13T00:09:06.420Z,11.50
2023-05-13T00:11:33.025Z,11.25
2023-05-13T00:13:59.641Z,12.00
2023-05-13T00:16:27.945Z,11.13
2023-05-13T00:18:55.381Z,10.95
2023-05-13T00:21:22.507Z,11.75
2023-05-13T00:23:49.501Z,11.10
2023-05-13T00:26:16.134Z,11.35
2023-05-13T00:28:44.783Z,12.07
2023-05-13T00:31:11.490Z,13.00
2023-05-13T00:33:38.192Z,13.05
2023-05-13T00:36:05.093Z,12.25
2023-05-13T00:38:32.702Z,13.65
2023-05-13T00:40:59.325Z,12.65
2023-05-13T00:43:26.202Z,12.52
2023-05-13T00:45:52.846Z,13.43
2023-05-13T00:48:19.508Z,13.90
2023-05-13T00:50:46.160Z,12.52
2023-05-13T00:53:12.987Z,13.65
2023-05-13T00:55:44.235Z,13.43
2023-05-13T00:58:11.493Z,12.95
2023-05-13T01:00:46.987Z,12.95
2023-05-13T01:03:20.827Z,13.43
2023-05-13T01:06:04.987Z,12.90
2023-05-13T01:08:51.765Z,13.65
2023-05-13T01:11:22.306Z,13.38
2023-05-13T01:13:50.656Z,12.95
2023-05-13T01:16:30.362Z,13.15
2023-05-13T01:18:59.332Z,12.63
2023-05-13T01:21:27.101Z,12.48
2023-05-13T01:23:54.349Z,13.20
2023-05-13T01:26:22.381Z,11.60
2023-05-13T01:28:50.263Z,12.40
2023-05-13T01:31:17.709Z,12.45
2023-05-13T01:33:44.583Z,12.98
2023-05-13T01:36:12.617Z,13.68
2023-05-13T01:38:41.161Z,14.25
2023-05-13T01:41:08.712Z,14.15
2023-05-13T01:43:36.135Z,14.00
2023-05-13T01:46:03.807Z,13.10
2023-05-13T01:48:32.814Z,13.43
2023-05-13T01:50:59.565Z,13.13
2023-05-13T01:53:26.835Z,14.63
2023-05-13T01:55:53.473Z,13.68
2023-05-13T01:58:21.147Z,13.90
2023-05-13T02:00:47.858Z,14.18
2023-05-13T02:03:14.995Z,13.70
2023-05-13T02:05:42.067Z,13.70
2023-05-13T02:08:09.024Z,13.48
2023-05-13T02:10:37.938Z,13.45
2023-05-13T02:13:04.528Z,13.13
2023-05-13T02:15:31.500Z,12.98
2023-05-13T02:17:58.734Z,14.93
2023-05-13T02:20:26.371Z,14.75
2023-05-13T02:22:53.002Z,14.25
2023-05-13T02:25:19.708Z,14.77
2023-05-13T02:27:46.287Z,13.82
2023-05-13T02:30:13.018Z,14.30
2023-05-13T02:32:42.738Z,15.27
2023-05-13T02:35:10.734Z,14.15
2023-05-13T02:37:37.424Z,15.32
2023-05-13T02:40:04.900Z,14.95
2023-05-13T02:42:31.547Z,14.43
2023-05-13T02:44:58.498Z,14.48
2023-05-13T02:47:26.701Z,14.73
2023-05-13T02:49:56.048Z,13.50
2023-05-13T02:52:22.985Z,14.38
2023-05-13T02:54:49.725Z,14.25
2023-05-13T02:57:16.384Z,14.50
2023-05-13T02:59:44.022Z,13.50
2023-05-13T03:02:10.959Z,13.90
2023-05-13T03:04:37.598Z,13.32
2023-05-13T03:07:04.342Z,13.18
2023-05-13T03:09:31.593Z,13.75
2023-05-13T03:11:58.516Z,13.98
2023-05-13T03:14:25.131Z,14.07
2023-05-13T03:16:51.796Z,13.05
2023-05-13T03:19:18.513Z,13.63
2023-05-13T03:21:45.763Z,13.05
2023-05-13T03:24:15.199Z,12.90
2023-05-13T03:26:41.906Z,14.23
2023-05-13T03:29:08.772Z,15.18
2023-05-13T03:31:36.845Z,14.55
2023-05-13T03:34:05.006Z,14.35
2023-05-13T03:36:32.817Z,14.82
2023-05-13T03:39:00.266Z,13.82
2023-05-13T03:41:28.136Z,14.68
2023-05-13T03:43:57.219Z,15.05
2023-05-13T03:46:23.945Z,13.55
2023-05-13T03:48:50.734Z,13.95
2023-05-13T03:51:17.708Z,13.73
2023-05-13T03:53:45.099Z,13.55
2023-05-13T03:56:11.845Z,14.57
2023-05-13T03:58:39.611Z,14.50
2023-05-13T04:01:07.654Z,14.38
2023-05-13T04:03:34.812Z,13.75
2023-05-13T04:06:01.482Z,12.60
2023-05-13T04:08:28.101Z,14.45
2023-05-13T04:10:56.617Z,14.65
2023-05-13T04:13:25.852Z,14.95
2023-05-13T04:15:54.353Z,14.73
2023-05-13T04:18:21.551Z,15.45
2023-05-13T04:20:48.168Z,14.90
2023-05-13T04:23:14.837Z,14.45
2023-05-13T04:25:42.278Z,14.50
2023-05-13T04:28:09.012Z,14.18
2023-05-13T04:30:40.324Z,13.77
2023-05-13T04:33:07.460Z,15.15
2023-05-13T04:35:35.153Z,14.60
2023-05-13T04:38:03.995Z,14.32
2023-05-13T04:40:30.772Z,15.18
2023-05-13T04:43:02.125Z,15.23
2023-05-13T04:45:33.256Z,15.23
2023-05-13T04:48:01.029Z,14.93
2023-05-13T04:50:27.724Z,14.93
2023-05-13T04:52:56.371Z,15.07
2023-05-13T04:55:23.492Z,15.75
2023-05-13T04:57:50.692Z,15.65
2023-05-13T05:00:18.100Z,14.95
2023-05-13T05:02:46.970Z,15.77
2023-05-13T05:05:14.645Z,14.35
2023-05-13T05:07:42.260Z,15.32
2023-05-13T05:10:09.459Z,16.05
2023-05-13T05:12:40.550Z,16.13
2023-05-13T05:15:15.353Z,16.08
2023-05-13T05:17:44.054Z,15.60
2023-05-13T05:20:12.067Z,15.88
2023-05-13T05:22:38.966Z,15.98
2023-05-13T05:25:05.710Z,16.65
2023-05-13T05:27:32.391Z,15.02
2023-05-13T05:29:58.984Z,15.60
2023-05-13T05:32:25.761Z,15.52
2023-05-13T05:34:52.664Z,15.35
2023-05-13T05:37:19.654Z,16.48
2023-05-13T05:39:46.269Z,16.50
2023-05-13T05:42:12.928Z,16.10
2023-05-13T05:44:39.570Z,15.45
2023-05-13T05:47:06.146Z,15.32
2023-05-13T05:49:32.808Z,15.27
2023-05-13T05:51:59.512Z,15.80
2023-05-13T05:54:28.252Z,14.88
2023-05-13T05:56:54.920Z,14.02
2023-05-13T05:59:21.517Z,13.48
2023-05-13T06:01:48.734Z,12.95
2023-05-13T06:04:15.389Z,12.70
2023-05-13T06:06:42.199Z,11.63
2023-05-13T06:09:08.797Z,11.60
2023-05-13T06:11:35.716Z,11.82
2023-05-13T06:14:03.308Z,10.82
2023-05-13T06:16:30.235Z,10.40
2023-05-13T06:18:57.082Z,10.85
2023-05-13T06:21:25.105Z,10.35
2023-05-13T06:23:51.741Z,10.68
2023-05-13T06:26:20.795Z,9.75
2023-05-13T06:28:47.434Z,10.13
2023-05-13T06:31:14.939Z,10.63
2023-05-13T06:33:43.678Z,10.20
2023-05-13T06:36:10.376Z,10.07
2023-05-13T06:38:37.066Z,10.20
2023-05-13T06:41:03.744Z,9.82
2023-05-13T06:43:33.745Z,9.65
2023-05-13T06:46:11.105Z,10.73
2023-05-13T06:48:37.866Z,9.80
2023-05-13T06:51:05.190Z,10.32
2023-05-13T06:53:31.908Z,9.63
2023-05-13T06:55:58.499Z,10.10
2023-05-13T06:58:25.172Z,9.75
2023-05-13T07:00:51.946Z,9.35
2023-05-13T07:03:18.683Z,9.68
2023-05-13T07:05:45.439Z,9.80
2023-05-13T07:08:17.736Z,9.57
2023-05-13T07:10:44.956Z,9.43
2023-05-13T07:13:11.622Z,9.13
2023-05-13T07:15:38.412Z,9.00
2023-05-13T07:18:05.041Z,8.18
2023-05-13T07:20:31.721Z,9.55
2023-05-13T07:22:58.587Z,8.85
2023-05-13T07:25:25.193Z,7.65
2023-05-13T07:27:51.800Z,8.32
2023-05-13T07:30:18.401Z,7.45
2023-05-13T07:32:45.080Z,7.47
2023-05-13T07:35:11.992Z,7.43
2023-05-13T07:37:38.733Z,6.95
2023-05-13T07:40:06.463Z,6.95
2023-05-13T07:42:33.465Z,6.10
2023-05-13T07:45:00.228Z,6.93
2023-05-13T07:47:28.977Z,6.15
2023-05-13T07:49:55.776Z,6.10
2023-05-13T07:52:22.391Z,6.07
2023-05-13T07:54:49.275Z,6.40
2023-05-13T07:57:15.983Z,6.32
2023-05-13T07:59:44.640Z,6.93
2023-05-13T08:02:11.968Z,6.03
2023-05-13T08:04:38.908Z,6.18
2023-05-13T08:07:06.083Z,6.28
2023-05-13T08:09:32.705Z,6.30
2023-05-13T08:11:59.285Z,5.90
2023-05-13T08:14:26.036Z,6.82
2023-05-13T08:16:52.832Z,6.20
2023-05-13T08:19:19.766Z,5.97
2023-05-13T08:21:47.816Z,6.68
2023-05-13T08:24:14.489Z,6.20
2023-05-13T08:26:41.084Z,5.70
2023-05-13T08:29:08.627Z,6.10
2023-05-13T08:31:37.251Z,6.72
2023-05-13T08:34:03.819Z,6.72
2023-05-13T08:36:30.970Z,7.22
2023-05-13T08:38:57.625Z,6.80
2023-05-13T08:41:24.325Z,6.80
2023-05-13T08:43:52.226Z,6.22
2023-05-13T08:46:19.651Z,5.97
2023-05-13T08:48:47.210Z,6.57
2023-05-13T08:51:13.972Z,5.88
2023-05-13T08:53:41.107Z,5.93
2023-05-13T08:56:10.863Z,6.20
2023-05-13T08:58:37.590Z,5.78
2023-05-13T09:01:05.682Z,6.22
2023-05-13T09:03:32.847Z,6.15
2023-05-13T09:06:03.180Z,5.38
2023-05-13T09:08:30.228Z,5.63
2023-05-13T09:10:57.112Z,6.30
2023-05-13T09:13:23.813Z,5.72
2023-05-13T09:15:51.141Z,6.25
2023-05-13T09:18:19.446Z,5.72
2023-05-13T09:20:46.406Z,6.38
2023-05-13T09:23:13.447Z,5.90
2023-05-13T09:25:40.271Z,5.55
2023-05-13T09:28:08.190Z,5.63
2023-05-13T09:30:36.943Z,5.95
2023-05-13T09:33:17.033Z,6.00
2023-05-13T09:35:45.069Z,4.88
2023-05-13T09:38:25.037Z,5.45
2023-05-13T09:40:57.142Z,5.25
2023-05-13T09:43:27.279Z,5.80
2023-05-13T09:46:01.229Z,5.25
2023-05-13T09:48:29.516Z,4.95
2023-05-13T09:50:58.088Z,4.60
2023-05-13T09:53:25.918Z,5.68
2023-05-13T09:55:54.002Z,5.40
2023-05-13T09:58:22.733Z,5.28
2023-05-13T10:00:49.610Z,5.25
2023-05-13T10:03:16.867Z,5.05
2023-05-13T10:05:43.849Z,5.07
2023-05-13T10:08:12.384Z,4.22
2023-05-13T10:10:39.973Z,5.70
2023-05-13T10:13:09.215Z,4.78
2023-05-13T10:15:36.177Z,5.03
2023-05-13T10:18:05.234Z,5.25
2023-05-13T10:20:33.683Z,4.60
2023-05-13T10:23:02.386Z,4.60
2023-05-13T10:25:31.555Z,4.93
2023-05-13T10:27:58.340Z,5.10
2023-05-13T10:30:26.535Z,4.70
2023-05-13T10:32:54.560Z,4.50
2023-05-13T10:35:22.292Z,5.15
2023-05-13T10:37:56.922Z,4.80
2023-05-13T10:40:41.996Z,4.25
2023-05-13T10:43:17.480Z,4.85
2023-05-13T10:45:48.046Z,5.28
2023-05-13T10:48:16.254Z,10.10
2023-05-13T10:50:57.515Z,5.63
2023-05-13T10:53:26.151Z,6.40
2023-05-13T10:55:56.591Z,5.00
2023-05-13T10:58:30.643Z,4.93
2023-05-13T11:01:36.279Z,4.60
2023-05-13T11:04:05.025Z,4.65
2023-05-13T11:06:39.530Z,4.38
2023-05-13T11:09:08.088Z,4.50
2023-05-13T11:11:35.839Z,4.45
2023-05-13T11:14:03.610Z,3.83
2023-05-13T11:16:30.264Z,4.22
2023-05-13T11:18:56.987Z,4.05
2023-05-13T11:21:35.246Z,4.57
2023-05-13T11:24:04.120Z,4.32
2023-05-13T11:27:16.334Z,3.75
2023-05-13T11:29:50.723Z,4.28
2023-05-13T11:32:51.567Z,4.55
2023-05-13T11:35:29.616Z,4.50
2023-05-13T11:37:59.157Z,4.35
2023-05-13T11:40:39.280Z,4.30
2023-05-13T11:43:06.014Z,4.78
2023-05-13T11:45:33.397Z,3.78
2023-05-13T11:48:19.031Z,4.40
2023-05-13T11:50:45.811Z,4.47
2023-05-13T11:53:12.488Z,3.80
2023-05-13T11:55:39.111Z,4.32
2023-05-13T11:58:05.720Z,4.72
2023-05-13T12:00:33.962Z,3.75
2023-05-13T12:03:03.095Z,4.70
2023-05-13T12:05:30.455Z,3.67
2023-05-13T12:07:58.029Z,3.97
2023-05-13T12:10:25.064Z,4.10
2023-05-13T12:12:51.803Z,2.88
2023-05-13T12:15:20.216Z,4.22
2023-05-13T12:17:48.449Z,4.32
2023-05-13T12:20:18.797Z,4.10
2023-05-13T12:22:45.525Z,4.00
2023-05-13T12:25:37.041Z,4.45
2023-05-13T12:28:14.126Z,3.58
2023-05-13T12:30:43.944Z,3.67
2023-05-13T12:33:24.612Z,3.80
2023-05-13T12:36:00.184Z,3.85
2023-05-13T12:38:27.199Z,4.00
2023-05-13T12:40:54.779Z,3.80
2023-05-13T12:43:21.460Z,3.80
2023-05-13T12:45:53.590Z,3.80
2023-05-13T12:48:23.443Z,3.83
2023-05-13T12:50:50.354Z,4.47
2023-05-13T12:53:17.024Z,3.75
2023-05-13T12:55:43.614Z,3.28
2023-05-13T12:58:11.306Z,3.55
2023-05-13T13:00:38.412Z,3.80
2023-05-13T13:03:05.308Z,3.40
2023-05-13T13:05:32.001Z,3.50
2023-05-13T13:07:58.733Z,3.90
2023-05-13T13:10:25.407Z,3.50
2023-05-13T13:12:52.217Z,3.30
2023-05-13T13:15:27.614Z,3.50
2023-05-13T13:17:54.253Z,3.85
2023-05-13T13:20:20.977Z,3.67
2023-05-13T13:22:47.619Z,3.10
2023-05-13T13:25:14.267Z,3.42
2023-05-13T13:27:40.935Z,3.42
2023-05-13T13:30:08.133Z,3.25
2023-05-13T13:32:36.040Z,3.28
2023-05-13T13:35:05.444Z,3.83
2023-05-13T13:37:32.099Z,3.50
2023-05-13T13:39:58.705Z,3.67
2023-05-13T13:42:33.626Z,3.67
2023-05-13T13:45:10.606Z,3.38
2023-05-13T13:47:37.583Z,2.97
2023-05-13T13:50:04.620Z,3.58
2023-05-13T13:52:31.590Z,3.05
2023-05-13T13:54:58.329Z,2.90
2023-05-13T13:57:24.910Z,2.42
2023-05-13T13:59:51.565Z,1.92
2023-05-13T14:02:18.179Z,2.13
2023-05-13T14:04:46.396Z,1.98
2023-05-13T14:07:13.109Z,2.00
2023-05-13T14:09:39.749Z,2.50
2023-05-13T14:12:06.406Z,2.05
2023-05-13T14:14:33.264Z,2.03
2023-05-13T14:16:59.938Z,2.03
2023-05-13T14:19:27.137Z,2.20
2023-05-13T14:21:53.776Z,2.80
2023-05-13T14:24:20.491Z,2.47
2023-05-13T14:26:47.114Z,2.40
2023-05-13T14:29:13.739Z,2.35
2023-05-13T14:31:42.499Z,2.38
2023-05-13T14:34:09.495Z,2.60
2023-05-13T14:36:36.138Z,2.60
2023-05-13T14:39:02.990Z,2.60
2023-05-13T14:41:29.924Z,2.88
2023-05-13T14:43:57.326Z,2.58
2023-05-13T14:46:24.066Z,2.97
2023-05-13T14:48:50.897Z,2.60
2023-05-13T14:51:17.684Z,2.67
2023-05-13T14:53:44.414Z,2.75
2023-05-13T14:56:11.230Z,3.22
2023-05-13T14:58:38.938Z,3.40
2023-05-13T15:01:05.682Z,3.25
2023-05-13T15:03:32.415Z,3.05
2023-05-13T15:05:59.109Z,3.58
2023-05-13T15:08:26.181Z,3.55
2023-05-13T15:10:52.789Z,3.17
2023-05-13T15:13:23.011Z,3.58
2023-05-13T15:15:49.798Z,3.60
2023-05-13T15:18:18.408Z,3.65
2023-05-13T15:20:45.377Z,3.72
2023-05-13T15:23:12.263Z,3.30
2023-05-13T15:25:38.875Z,2.58
2023-05-13T15:28:05.550Z,2.58
2023-05-13T15:30:35.919Z,2.45
2023-05-13T15:33:03.899Z,2.78
2023-05-13T15:35:30.669Z,2.45
2023-05-13T15:37:57.724Z,2.38
2023-05-13T15:40:24.453Z,2.50
2023-05-13T15:42:51.312Z,2.70
2023-05-13T15:45:18.677Z,2.70
2023-05-13T15:47:45.631Z,2.50
2023-05-13T15:50:13.995Z,2.33
2023-05-13T15:52:40.765Z,2.50
2023-05-13T15:55:07.471Z,2.80
2023-05-13T15:57:34.563Z,2.63
2023-05-13T16:00:01.284Z,2.60
2023-05-13T16:02:35.845Z,2.20
2023-05-13T16:05:02.630Z,2.80
2023-05-13T16:07:29.377Z,2.38
2023-05-13T16:09:56.365Z,2.70
2023-05-13T16:12:22.980Z,2.17
2023-05-13T16:14:51.356Z,2.30
2023-05-13T16:17:18.215Z,2.30
2023-05-13T16:19:46.299Z,4.32
2023-05-13T16:22:30.787Z,2.38
2023-05-13T16:25:02.613Z,2.47
2023-05-13T16:27:30.791Z,2.90
2023-05-13T16:29:58.725Z,2.65
2023-05-13T16:32:25.578Z,2.90
2023-05-13T16:34:52.500Z,2.97
2023-05-13T16:37:19.119Z,2.65
2023-05-13T16:39:46.078Z,7.20
2023-05-13T16:42:13.231Z,3.47
2023-05-13T16:44:43.170Z,3.78
2023-05-13T16:47:09.960Z,3.85
2023-05-13T16:49:37.114Z,4.25
2023-05-13T16:52:04.754Z,3.78
2023-05-13T16:54:31.573Z,2.85
2023-05-13T16:56:59.349Z,3.85
2023-05-13T16:59:27.484Z,3.75
2023-05-13T17:01:54.420Z,4.00
2023-05-13T17:04:21.797Z,3.17
2023-05-13T17:06:48.435Z,3.30
2023-05-13T17:09:15.090Z,2.95
2023-05-13T17:11:42.841Z,3.28
2023-05-13T17:14:10.606Z,3.03
2023-05-13T17:16:38.401Z,2.47
2023-05-13T17:19:11.236Z,3.03
2023-05-13T17:21:38.957Z,3.00
2023-05-13T17:24:06.623Z,3.80
2023-05-13T17:26:36.131Z,3.38
2023-05-13T17:29:04.303Z,3.45
2023-05-13T17:31:31.007Z,3.55
2023-05-13T17:33:57.647Z,3.20
2023-05-13T17:36:24.484Z,3.30
2023-05-13T17:38:51.377Z,4.32
2023-05-13T17:41:18.052Z,4.55
2023-05-13T17:43:44.741Z,4.28
2023-05-13T17:46:11.413Z,4.00
2023-05-13T17:48:38.267Z,3.78
2023-05-13T17:51:04.951Z,4.10
2023-05-13T17:53:34.469Z,4.80
2023-05-13T17:56:02.746Z,4.25
2023-05-13T17:58:32.487Z,5.18
2023-05-13T18:01:00.041Z,4.22
2023-05-13T18:03:28.518Z,4.00
2023-05-13T18:05:56.009Z,4.60
2023-05-13T18:08:22.710Z,4.45
2023-05-13T18:10:49.459Z,4.53
2023-05-13T18:13:16.266Z,4.60
2023-05-13T18:15:42.922Z,4.32
2023-05-13T18:18:10.003Z,6.72
2023-05-13T18:20:36.805Z,5.20
2023-05-13T18:23:03.459Z,4.75
2023-05-13T18:25:31.321Z,3.85
2023-05-13T18:27:57.949Z,4.03
2023-05-13T18:30:24.863Z,4.40
2023-05-13T18:32:51.836Z,3.58
2023-05-13T18:35:22.015Z,4.30
2023-05-13T18:37:51.438Z,4.70
2023-05-13T18:40:19.910Z,6.00
2023-05-13T18:42:46.809Z,4.75
2023-05-13T18:45:13.624Z,4.95
2023-05-13T18:47:40.354Z,5.47
2023-05-13T18:50:08.110Z,5.72
2023-05-13T18:52:34.800Z,5.47
2023-05-13T18:55:04.587Z,5.82
2023-05-13T18:57:31.431Z,6.63
2023-05-13T18:59:58.456Z,6.53
2023-05-13T19:02:25.443Z,7.10
2023-05-13T19:04:52.327Z,6.18
2023-05-13T19:07:18.949Z,10.57
2023-05-13T19:09:45.813Z,6.53
2023-05-13T19:12:12.503Z,6.07
2023-05-13T19:14:39.481Z,7.10
2023-05-13T19:17:06.425Z,6.43
2023-05-13T19:19:33.159Z,6.78
2023-05-13T19:22:00.188Z,6.00
2023-05-13T19:24:26.812Z,7.00
2023-05-13T19:26:53.595Z,7.97
2023-05-13T19:29:20.247Z,7.65
2023-05-13T19:31:47.136Z,6.90
2023-05-13T19:34:15.167Z,7.35
2023-05-13T19:36:43.170Z,7.80
2023-05-13T19:39:10.309Z,7.40
2023-05-13T19:41:37.784Z,8.65
2023-05-13T19:44:05.372Z,7.53
2023-05-13T19:46:32.339Z,8.25
2023-05-13T19:48:59.118Z,7.25
2023-05-13T19:51:26.737Z,7.53
2023-05-13T19:53:53.532Z,8.25
2023-05-13T19:56:20.169Z,7.40
2023-05-13T19:58:46.839Z,7.60
2023-05-13T20:01:14.864Z,7.95
2023-05-13T20:03:42.739Z,7.82
2023-05-13T20:06:10.095Z,7.55
2023-05-13T20:08:38.165Z,8.40
2023-05-13T20:11:04.801Z,8.45
2023-05-13T20:13:32.930Z,8.02
2023-05-13T20:16:07.436Z,7.75
2023-05-13T20:18:34.390Z,7.85
2023-05-13T20:21:01.579Z,8.27
2023-05-13T20:23:28.189Z,8.30
2023-05-13T20:25:56.898Z,8.57
2023-05-13T20:28:24.805Z,8.63
2023-05-13T20:30:55.648Z,9.07
2023-05-13T20:33:22.420Z,8.55
2023-05-13T20:35:49.171Z,9.23
2023-05-13T20:38:15.869Z,8.63
2023-05-13T20:40:42.475Z,8.45
2023-05-13T20:43:09.313Z,8.45
2023-05-13T20:45:39.361Z,9.43
2023-05-13T20:48:07.435Z,11.20
2023-05-13T20:50:35.513Z,10.82
2023-05-13T20:53:02.586Z,10.65
2023-05-13T20:55:32.229Z,10.00
2023-05-13T20:57:58.919Z,10.10
2023-05-13T21:00:25.778Z,9.77
2023-05-13T21:02:55.058Z,10.10
2023-05-13T21:05:22.048Z,9.70
2023-05-13T21:07:49.057Z,10.35
2023-05-13T21:10:17.877Z,10.95
2023-05-13T21:12:47.626Z,11.10
2023-05-13T21:15:15.010Z,12.93
2023-05-13T21:17:41.743Z,13.15
2023-05-13T21:20:10.293Z,13.45
2023-05-13T21:22:37.303Z,12.15
2023-05-13T21:25:04.642Z,12.68
2023-05-13T21:27:31.855Z,13.30
2023-05-13T21:29:58.563Z,12.90
2023-05-13T21:32:25.264Z,13.05
2023-05-13T21:34:51.942Z,13.30
2023-05-13T21:37:18.614Z,13.18
2023-05-13T21:39:45.326Z,11.55
2023-05-13T21:42:12.062Z,12.60
2023-05-13T21:44:38.858Z,12.85
2023-05-13T21:47:05.792Z,13.95
2023-05-13T21:49:32.432Z,13.40
2023-05-13T21:51:59.220Z,13.07
2023-05-13T21:54:26.545Z,13.05
2023-05-13T21:56:53.274Z,13.00
2023-05-13T21:59:20.562Z,13.93
2023-05-13T22:01:47.257Z,13.85
2023-05-13T22:04:14.152Z,12.65
2023-05-13T22:06:40.806Z,12.65
2023-05-13T22:09:10.578Z,13.18
2023-05-13T22:11:37.313Z,11.82
2023-05-13T22:14:07.907Z,11.25
2023-05-13T22:16:34.694Z,12.75
2023-05-13T22:19:01.718Z,13.18
2023-05-13T22:21:28.983Z,12.80
2023-05-13T22:23:55.602Z,12.95
2023-05-13T22:26:22.290Z,13.20
2023-05-13T22:28:48.992Z,13.63
2023-05-13T22:31:19.564Z,12.65
2023-05-13T22:33:53.185Z,13.00
2023-05-13T22:36:22.893Z,12.68
2023-05-13T22:38:49.844Z,13.65
2023-05-13T22:41:18.990Z,14.93
2023-05-13T22:43:45.879Z,14.05
2023-05-13T22:46:12.629Z,14.30
2023-05-13T22:48:39.659Z,13.57
2023-05-13T22:51:06.254Z,15.70
2023-05-13T22:53:32.984Z,19.25
2023-05-13T22:55:59.625Z,34.08
2023-05-13T22:58:26.312Z,23.20
2023-05-13T23:00:52.894Z,22.02
2023-05-13T23:03:19.476Z,22.55
2023-05-13T23:05:46.055Z,24.90
2023-05-13T23:08:12.692Z,24.45
2023-05-13T23:10:39.282Z,25.95
2023-05-13T23:13:06.230Z,24.02
2023-05-13T23:15:33.028Z,23.58
2023-05-13T23:17:59.721Z,20.95
2023-05-13T23:20:26.322Z,19.17
2023-05-13T23:22:53.465Z,17.52
2023-05-13T23:25:27.202Z,17.35
2023-05-13T23:27:53.827Z,16.92
2023-05-13T23:30:21.605Z,18.13
2023-05-13T23:32:48.553Z,15.32
2023-05-13T23:35:15.474Z,15.18
2023-05-13T23:37:42.104Z,14.52
2023-05-13T23:40:09.141Z,15.13
2023-05-13T23:42:36.027Z,15.95
2023-05-13T23:45:02.714Z,14.05
2023-05-13T23:47:29.632Z,15.23
2023-05-13T23:49:57.955Z,14.10
2023-05-13T23:52:24.606Z,13.70
2023-05-13T23:54:51.178Z,14.38
2023-05-13T23:57:18.167Z,14.20
2023-05-13T23:59:44.953Z,14.85
